createdAt,value
2023-03-23T00:01:55.805Z,98408.06
2023-03-23T00:04:28.333Z,98413.16
2023-03-23T00:06:58.031Z,98430.25
2023-03-23T00:09:27.693Z,98432.91
2023-03-23T00:12:06.143Z,98416.72
2023-03-23T00:14:42.737Z,98420.69
2023-03-23T00:17:15.571Z,98420.28
2023-03-23T00:19:50.888Z,98418.47
2023-03-23T00:22:22.945Z,98433.50
2023-03-23T00:24:52.829Z,98430.06
2023-03-23T00:27:23.700Z,98426.78
2023-03-23T00:29:54.895Z,98416.91
2023-03-23T00:32:29.746Z,98413.34
2023-03-23T00:35:02.520Z,98413.34
2023-03-23T00:37:33.581Z,98402.25
2023-03-23T00:40:09.969Z,98414.16
2023-03-23T00:42:40.646Z,98412.13
2023-03-23T00:45:13.924Z,98404.50
2023-03-23T00:47:47.873Z,98399.78
2023-03-23T00:50:24.342Z,98396.31
2023-03-23T00:53:00.545Z,98404.91
2023-03-23T00:55:31.676Z,98395.84
2023-03-23T00:58:01.373Z,98412.53
2023-03-23T01:00:31.549Z,98397.28
2023-03-23T01:03:01.366Z,98400.13
2023-03-23T01:05:33.863Z,98407.25
2023-03-23T01:08:03.624Z,98396.47
2023-03-23T01:10:35.069Z,98395.63
2023-03-23T01:13:06.239Z,98393.16
2023-03-23T01:15:36.763Z,98405.47
2023-03-23T01:18:07.303Z,98405.78
2023-03-23T01:20:40.639Z,98403.03
2023-03-23T01:23:10.279Z,98405.19
2023-03-23T01:25:40.579Z,98415.38
2023-03-23T01:28:11.723Z,98401.53
2023-03-23T01:30:41.685Z,98397.66
2023-03-23T01:33:11.713Z,98390.53
2023-03-23T01:35:44.757Z,98392.38
2023-03-23T01:38:14.838Z,98380.78
2023-03-23T01:40:44.838Z,98391.19
2023-03-23T01:43:18.267Z,98396.88
2023-03-23T01:45:49.322Z,98389.16
2023-03-23T01:48:22.658Z,98403.38
2023-03-23T01:51:00.902Z,98403.28
2023-03-23T01:53:37.293Z,98400.13
2023-03-23T01:56:07.851Z,98385.66
2023-03-23T01:58:40.952Z,98374.28
2023-03-23T02:01:14.119Z,98369.00
2023-03-23T02:03:49.579Z,98365.09
2023-03-23T02:06:22.038Z,98365.13
2023-03-23T02:09:10.567Z,98368.34
2023-03-23T02:11:40.519Z,98376.66
2023-03-23T02:14:10.257Z,98384.00
2023-03-23T02:16:47.347Z,98364.38
2023-03-23T02:19:44.377Z,98369.78
2023-03-23T02:22:38.068Z,98365.94
2023-03-23T02:25:43.515Z,98345.78
2023-03-23T02:28:36.559Z,98335.75
2023-03-23T02:31:24.993Z,98342.63
2023-03-23T02:34:02.107Z,98341.19
2023-03-23T02:36:38.240Z,98323.81
2023-03-23T02:39:13.924Z,98337.59
2023-03-23T02:41:47.347Z,98341.28
2023-03-23T02:44:18.701Z,98343.50
2023-03-23T02:46:48.795Z,98336.81
2023-03-23T02:49:23.468Z,98349.44
2023-03-23T02:51:55.296Z,98335.41
2023-03-23T02:54:27.088Z,98330.31
2023-03-23T02:56:59.972Z,98323.56
2023-03-23T02:59:33.365Z,98323.38
2023-03-23T03:02:09.271Z,98322.00
2023-03-23T03:04:44.341Z,98328.06
2023-03-23T03:07:37.984Z,98328.78
2023-03-23T03:10:12.955Z,98342.44
2023-03-23T03:12:52.256Z,98341.88
2023-03-23T03:15:31.138Z,98344.72
2023-03-23T03:18:07.318Z,98337.44
2023-03-23T03:20:44.854Z,98348.34
2023-03-23T03:23:16.962Z,98339.75
2023-03-23T03:25:50.981Z,98341.88
2023-03-23T03:28:29.829Z,98342.81
2023-03-23T03:31:04.382Z,98352.47
2023-03-23T03:33:36.016Z,98350.34
2023-03-23T03:36:10.449Z,98352.44
2023-03-23T03:38:48.142Z,98355.34
2023-03-23T03:41:19.878Z,98347.75
2023-03-23T03:43:50.722Z,98350.47
2023-03-23T03:46:20.362Z,98355.75
2023-03-23T03:48:52.884Z,98353.19
2023-03-23T03:51:27.678Z,98352.63
2023-03-23T03:53:58.128Z,98353.16
2023-03-23T03:56:28.321Z,98349.03
2023-03-23T03:59:21.840Z,98342.84
2023-03-23T04:02:07.987Z,98347.69
2023-03-23T04:04:37.726Z,98357.19
2023-03-23T04:07:12.151Z,98367.13
2023-03-23T04:09:42.609Z,98351.47
2023-03-23T04:12:14.195Z,98357.91
2023-03-23T04:15:07.343Z,98362.97
2023-03-23T04:17:41.838Z,98360.81
2023-03-23T04:20:16.567Z,98362.69
2023-03-23T04:23:04.263Z,98363.25
2023-03-23T04:25:36.990Z,98364.69
2023-03-23T04:28:11.249Z,98372.00
2023-03-23T04:30:53.824Z,98368.09
2023-03-23T04:33:26.201Z,98378.16
2023-03-23T04:36:17.219Z,98375.03
2023-03-23T04:39:00.726Z,98372.16
2023-03-23T04:41:30.730Z,98381.56
2023-03-23T04:44:18.739Z,98373.41
2023-03-23T04:46:55.309Z,98378.09
2023-03-23T04:49:26.046Z,98371.81
2023-03-23T04:52:05.232Z,98378.38
2023-03-23T04:54:47.798Z,98382.16
2023-03-23T04:57:18.479Z,98391.66
2023-03-23T05:00:06.583Z,98391.34
2023-03-23T05:02:43.280Z,98403.97
2023-03-23T05:05:15.208Z,98397.41
2023-03-23T05:07:45.864Z,98405.25
2023-03-23T05:10:25.346Z,98404.06
2023-03-23T05:12:57.576Z,98423.31
2023-03-23T05:15:27.476Z,98421.53
2023-03-23T05:17:57.424Z,98434.25
2023-03-23T05:20:28.945Z,98419.31
2023-03-23T05:23:13.781Z,98402.88
2023-03-23T05:25:48.621Z,98408.25
2023-03-23T05:28:23.084Z,98402.88
2023-03-23T05:30:58.095Z,98383.66
2023-03-23T05:33:32.164Z,98387.53
2023-03-23T05:36:08.918Z,98370.19
2023-03-23T05:38:51.072Z,98374.69
2023-03-23T05:41:24.243Z,98370.47
2023-03-23T05:43:54.420Z,98376.78
2023-03-23T05:46:31.968Z,98378.50
2023-03-23T05:49:03.866Z,98351.47
2023-03-23T05:51:40.906Z,98331.03
2023-03-23T05:54:17.721Z,98336.69
2023-03-23T05:56:52.481Z,98321.94
2023-03-23T05:59:44.290Z,98281.56
2023-03-23T06:02:20.083Z,98289.41
2023-03-23T06:04:50.282Z,98264.44
2023-03-23T06:07:26.298Z,98266.63
2023-03-23T06:10:02.306Z,98253.38
2023-03-23T06:12:44.024Z,98247.97
2023-03-23T06:15:32.587Z,98284.84
2023-03-23T06:18:21.743Z,98305.41
2023-03-23T06:21:07.879Z,98321.72
2023-03-23T06:24:11.427Z,98342.50
2023-03-23T06:26:45.304Z,98357.00
2023-03-23T06:29:23.489Z,98357.69
2023-03-23T06:32:01.089Z,98364.28
2023-03-23T06:34:32.031Z,98378.91
2023-03-23T06:37:24.575Z,98381.22
2023-03-23T06:40:32.747Z,98381.84
2023-03-23T06:43:02.780Z,98364.50
2023-03-23T06:45:52.454Z,98355.91
2023-03-23T06:48:54.212Z,98340.50
2023-03-23T06:51:31.197Z,98346.06
2023-03-23T06:54:01.391Z,98337.84
2023-03-23T06:56:35.410Z,98332.91
2023-03-23T06:59:05.409Z,98334.22
2023-03-23T07:01:39.335Z,98333.53
2023-03-23T07:04:09.614Z,98313.34
2023-03-23T07:06:51.451Z,98315.19
2023-03-23T07:09:25.566Z,98311.72
2023-03-23T07:12:01.134Z,98325.41
2023-03-23T07:14:38.712Z,98335.56
2023-03-23T07:17:11.341Z,98352.44
2023-03-23T07:19:45.923Z,98363.31
2023-03-23T07:22:17.715Z,98369.00
2023-03-23T07:24:53.098Z,98365.34
2023-03-23T07:27:29.009Z,98368.03
2023-03-23T07:30:01.907Z,98379.00
2023-03-23T07:32:34.137Z,98381.97
2023-03-23T07:35:05.048Z,98388.59
2023-03-23T07:37:46.579Z,98370.97
2023-03-23T07:40:19.155Z,98377.78
2023-03-23T07:42:57.213Z,98384.75
2023-03-23T07:45:52.948Z,98393.91
2023-03-23T07:48:27.041Z,98400.38
2023-03-23T07:50:56.828Z,98399.97
2023-03-23T07:53:26.559Z,98400.53
2023-03-23T07:56:11.483Z,98402.28
2023-03-23T07:58:55.597Z,98409.09
2023-03-23T08:01:25.391Z,98400.19
2023-03-23T08:04:23.434Z,98401.19
2023-03-23T08:07:13.426Z,98414.81
2023-03-23T08:09:55.934Z,98415.88
2023-03-23T08:12:41.501Z,98406.09
2023-03-23T08:15:30.089Z,98399.88
2023-03-23T08:18:17.757Z,98400.50
2023-03-23T08:21:11.712Z,98406.00
2023-03-23T08:24:06.309Z,98406.41
2023-03-23T08:26:55.156Z,98401.09
2023-03-23T08:29:49.178Z,98393.38
2023-03-23T08:32:35.493Z,98392.72
2023-03-23T08:35:22.552Z,98390.78
2023-03-23T08:38:18.700Z,98390.78
2023-03-23T08:41:11.739Z,98395.84
2023-03-23T08:44:00.292Z,98395.75
2023-03-23T08:46:48.385Z,98389.75
2023-03-23T08:49:55.002Z,98410.00
2023-03-23T08:52:50.478Z,98410.72
2023-03-23T08:55:48.595Z,98414.06
2023-03-23T08:58:32.002Z,98415.78
2023-03-23T09:01:01.932Z,98406.72
2023-03-23T09:03:56.956Z,98405.78
2023-03-23T09:06:37.292Z,98403.16
2023-03-23T09:09:08.468Z,98407.41
2023-03-23T09:11:41.823Z,98400.53
2023-03-23T09:14:11.731Z,98386.19
2023-03-23T09:16:41.601Z,98391.19
2023-03-23T09:19:13.599Z,98387.97
2023-03-23T09:21:43.431Z,98386.31
2023-03-23T09:24:13.195Z,98381.53
2023-03-23T09:26:45.552Z,98388.41
2023-03-23T09:29:15.259Z,98388.91
2023-03-23T09:31:47.560Z,98380.22
2023-03-23T09:34:17.906Z,98384.84
2023-03-23T09:36:49.292Z,98389.69
2023-03-23T09:39:19.970Z,98382.66
2023-03-23T09:42:22.454Z,98387.47
2023-03-23T09:45:04.945Z,98389.34
2023-03-23T09:47:45.740Z,98396.34
2023-03-23T09:50:19.523Z,98390.97
2023-03-23T09:52:55.474Z,98393.31
2023-03-23T09:55:26.361Z,98404.03
2023-03-23T09:58:04.127Z,98400.13
2023-03-23T10:00:38.680Z,98404.66
2023-03-23T10:03:18.657Z,98409.25
2023-03-23T10:05:50.569Z,98400.38
2023-03-23T10:08:22.724Z,98400.34
2023-03-23T10:11:03.462Z,98410.47
2023-03-23T10:13:55.588Z,98403.00
2023-03-23T10:16:30.414Z,98402.75
2023-03-23T10:19:09.052Z,98408.94
2023-03-23T10:21:42.726Z,98404.31
2023-03-23T10:24:14.092Z,98401.88
2023-03-23T10:26:52.379Z,98407.31
2023-03-23T10:29:29.173Z,98385.00
2023-03-23T10:32:03.222Z,98394.59
2023-03-23T10:34:39.503Z,98391.53
2023-03-23T10:37:15.530Z,98390.09
2023-03-23T10:39:52.723Z,98385.22
2023-03-23T10:42:28.740Z,98392.50
2023-03-23T10:45:05.156Z,98379.59
2023-03-23T10:47:35.896Z,98384.41
2023-03-23T10:50:09.177Z,98386.13
2023-03-23T10:52:40.722Z,98385.84
2023-03-23T10:55:13.258Z,98376.28
2023-03-23T10:57:44.798Z,98385.03
2023-03-23T11:00:28.066Z,98384.47
2023-03-23T11:03:05.165Z,98396.00
2023-03-23T11:05:41.701Z,98389.13
2023-03-23T11:08:17.080Z,98383.44
2023-03-23T11:10:54.521Z,98374.19
2023-03-23T11:13:26.236Z,98412.19
2023-03-23T11:15:58.520Z,98420.41
2023-03-23T11:18:31.093Z,98416.75
2023-03-23T11:21:02.506Z,98418.44
2023-03-23T11:23:34.190Z,98425.53
2023-03-23T11:26:10.085Z,98424.75
2023-03-23T11:28:40.833Z,98430.47
2023-03-23T11:31:13.750Z,98434.66
2023-03-23T11:33:57.464Z,98420.88
2023-03-23T11:36:38.880Z,98408.50
2023-03-23T11:39:24.142Z,98408.25
2023-03-23T11:42:06.864Z,98424.25
2023-03-23T11:44:45.805Z,98440.78
2023-03-23T11:47:28.678Z,98424.88
2023-03-23T11:50:04.506Z,98413.78
2023-03-23T11:52:43.623Z,98421.91
2023-03-23T11:55:18.590Z,98432.41
2023-03-23T11:57:48.558Z,98440.72
2023-03-23T12:00:20.337Z,98445.16
2023-03-23T12:03:00.653Z,98438.56
2023-03-23T12:05:55.352Z,98417.22
2023-03-23T12:08:38.491Z,98429.00
2023-03-23T12:11:16.296Z,98433.53
2023-03-23T12:14:02.805Z,98433.25
2023-03-23T12:16:43.578Z,98444.88
2023-03-23T12:19:24.258Z,98439.38
2023-03-23T12:22:04.510Z,98424.97
2023-03-23T12:24:50.725Z,98436.59
2023-03-23T12:27:27.291Z,98429.66
2023-03-23T12:30:22.710Z,98426.31
2023-03-23T12:33:14.028Z,98421.53
2023-03-23T12:35:58.267Z,98415.13
2023-03-23T12:38:48.100Z,98437.00
2023-03-23T12:41:21.258Z,98422.22
2023-03-23T12:43:56.352Z,98426.91
2023-03-23T12:46:54.571Z,98425.44
2023-03-23T12:49:28.954Z,98418.34
2023-03-23T12:52:05.762Z,98418.47
2023-03-23T12:54:40.411Z,98411.50
2023-03-23T12:57:16.420Z,98424.78
2023-03-23T12:59:51.107Z,98430.03
2023-03-23T13:02:25.856Z,98431.09
2023-03-23T13:05:01.148Z,98428.13
2023-03-23T13:07:39.831Z,98420.09
2023-03-23T13:10:22.192Z,98423.69
2023-03-23T13:12:53.836Z,98413.47
2023-03-23T13:15:34.842Z,98421.59
2023-03-23T13:18:13.540Z,98407.34
2023-03-23T13:20:56.569Z,98409.94
2023-03-23T13:23:32.830Z,98404.06
2023-03-23T13:26:05.800Z,98410.72
2023-03-23T13:28:38.425Z,98416.41
2023-03-23T13:31:17.339Z,98418.63
2023-03-23T13:33:52.912Z,98414.41
2023-03-23T13:36:31.910Z,98434.13
2023-03-23T13:39:08.757Z,98437.84
2023-03-23T13:41:49.232Z,98432.97
2023-03-23T13:44:22.713Z,98438.84
2023-03-23T13:47:02.040Z,98428.13
2023-03-23T13:49:31.926Z,98423.88
2023-03-23T13:52:18.618Z,98421.28
2023-03-23T13:54:52.111Z,98409.91
2023-03-23T13:57:30.176Z,98414.78
2023-03-23T14:00:02.355Z,98420.47
2023-03-23T14:02:42.624Z,98426.34
2023-03-23T14:05:38.526Z,98421.63
2023-03-23T14:08:17.384Z,98415.78
2023-03-23T14:10:58.406Z,98411.22
2023-03-23T14:13:34.478Z,98390.78
2023-03-23T14:16:07.257Z,98416.28
2023-03-23T14:18:40.898Z,98417.38
2023-03-23T14:21:19.635Z,98422.28
2023-03-23T14:23:49.321Z,98424.22
2023-03-23T14:26:24.368Z,98426.66
2023-03-23T14:28:57.015Z,98433.31
2023-03-23T14:31:29.304Z,98436.03
2023-03-23T14:34:01.028Z,98429.22
2023-03-23T14:36:32.892Z,98437.97
2023-03-23T14:39:07.557Z,98431.75
2023-03-23T14:41:40.819Z,98434.75
2023-03-23T14:44:13.211Z,98426.28
2023-03-23T14:46:43.004Z,98429.44
2023-03-23T14:49:18.781Z,98425.94
2023-03-23T14:51:52.819Z,98431.16
2023-03-23T14:54:26.756Z,98437.00
2023-03-23T14:56:59.692Z,98425.28
2023-03-23T14:59:29.431Z,98430.16
2023-03-23T15:02:02.893Z,98432.16
2023-03-23T15:04:32.937Z,98430.91
2023-03-23T15:07:05.641Z,98425.06
2023-03-23T15:09:36.020Z,98426.38
2023-03-23T15:12:09.013Z,98423.66
2023-03-23T15:14:48.545Z,98434.69
2023-03-23T15:17:23.919Z,98445.41
2023-03-23T15:19:55.520Z,98445.03
2023-03-23T15:22:29.994Z,98449.94
2023-03-23T15:25:12.440Z,98447.75
2023-03-23T15:27:47.460Z,98452.13
2023-03-23T15:30:22.942Z,98466.47
2023-03-23T15:32:56.374Z,98459.88
2023-03-23T15:35:28.570Z,98455.34
2023-03-23T15:38:03.546Z,98451.75
2023-03-23T15:40:37.418Z,98438.84
2023-03-23T15:43:20.758Z,98445.97
2023-03-23T15:46:01.872Z,98443.72
2023-03-23T15:48:32.039Z,98438.03
2023-03-23T15:51:02.608Z,98446.38
2023-03-23T15:53:34.880Z,98459.00
2023-03-23T15:56:06.904Z,98463.50
2023-03-23T15:58:40.471Z,98468.09
2023-03-23T16:01:16.218Z,98485.34
2023-03-23T16:03:50.564Z,98494.84
2023-03-23T16:06:25.155Z,98512.28
2023-03-23T16:08:56.025Z,98524.72
2023-03-23T16:11:27.855Z,98523.69
2023-03-23T16:14:00.618Z,98530.00
2023-03-23T16:16:32.669Z,98531.63
2023-03-23T16:19:02.503Z,98524.91
2023-03-23T16:21:32.306Z,98531.31
2023-03-23T16:24:02.849Z,98537.31
2023-03-23T16:26:32.870Z,98541.38
2023-03-23T16:29:12.944Z,98534.50
2023-03-23T16:31:46.840Z,98536.09
2023-03-23T16:34:16.529Z,98538.53
2023-03-23T16:36:46.190Z,98533.84
2023-03-23T16:39:16.052Z,98546.59
2023-03-23T16:41:45.823Z,98541.84
2023-03-23T16:44:18.114Z,98546.28
2023-03-23T16:46:47.980Z,98552.09
2023-03-23T16:49:17.684Z,98552.72
2023-03-23T16:51:48.325Z,98549.72
2023-03-23T16:54:18.550Z,98543.84
2023-03-23T16:56:49.241Z,98547.34
2023-03-23T16:59:22.176Z,98533.88
2023-03-23T17:01:52.084Z,98533.50
2023-03-23T17:04:21.790Z,98522.78
2023-03-23T17:06:51.864Z,98520.47
2023-03-23T17:09:21.924Z,98521.25
2023-03-23T17:11:51.658Z,98514.09
2023-03-23T17:14:24.728Z,98514.97
2023-03-23T17:16:54.802Z,98508.59
2023-03-23T17:19:24.511Z,98508.00
2023-03-23T17:21:54.350Z,98510.63
2023-03-23T17:24:24.611Z,98517.53
2023-03-23T17:26:54.253Z,98510.97
2023-03-23T17:29:26.640Z,98513.53
2023-03-23T17:31:56.351Z,98513.28
2023-03-23T17:34:26.624Z,98514.34
2023-03-23T17:36:56.899Z,98519.13
2023-03-23T17:39:26.557Z,98523.75
2023-03-23T17:41:56.604Z,98532.22
2023-03-23T17:44:29.635Z,98531.59
2023-03-23T17:47:00.762Z,98536.69
2023-03-23T17:49:30.960Z,98541.22
2023-03-23T17:52:01.180Z,98547.66
2023-03-23T17:54:31.855Z,98558.94
2023-03-23T17:57:04.249Z,98558.03
2023-03-23T17:59:36.542Z,98552.94
2023-03-23T18:02:06.300Z,98546.03
2023-03-23T18:04:36.651Z,98537.91
2023-03-23T18:07:06.676Z,98545.69
2023-03-23T18:09:36.384Z,98548.75
2023-03-23T18:12:06.193Z,98548.94
2023-03-23T18:14:40.195Z,98551.97
2023-03-23T18:17:09.985Z,98563.13
2023-03-23T18:19:39.655Z,98556.72
2023-03-23T18:22:09.466Z,98556.09
2023-03-23T18:24:39.176Z,98546.63
2023-03-23T18:27:08.946Z,98539.16
2023-03-23T18:29:41.219Z,98549.13
2023-03-23T18:32:10.928Z,98549.78
2023-03-23T18:34:43.350Z,98552.75
2023-03-23T18:37:13.141Z,98543.97
2023-03-23T18:39:43.117Z,98556.31
2023-03-23T18:42:13.035Z,98547.31
2023-03-23T18:44:45.703Z,98548.84
2023-03-23T18:47:15.738Z,98555.06
2023-03-23T18:49:47.493Z,98552.09
2023-03-23T18:52:17.300Z,98556.88
2023-03-23T18:54:47.388Z,98549.25
2023-03-23T18:57:21.505Z,98546.13
2023-03-23T18:59:54.347Z,98536.06
2023-03-23T19:02:24.769Z,98531.16
2023-03-23T19:04:54.738Z,98531.50
2023-03-23T19:07:24.476Z,98534.91
2023-03-23T19:09:54.255Z,98540.00
2023-03-23T19:12:24.041Z,98539.59
2023-03-23T19:14:56.595Z,98546.50
2023-03-23T19:17:27.119Z,98544.50
2023-03-23T19:22:27.665Z,98526.50
2023-03-23T19:24:57.785Z,98526.00
2023-03-23T19:27:27.742Z,98526.13
2023-03-23T19:30:00.560Z,98528.88
2023-03-23T19:32:30.727Z,98527.63
2023-03-23T19:35:01.340Z,98516.31
2023-03-23T19:37:34.690Z,98502.13
2023-03-23T19:40:24.159Z,98509.63
2023-03-23T19:42:57.451Z,98502.38
2023-03-23T19:45:29.814Z,98496.81
2023-03-23T19:47:59.669Z,98495.97
2023-03-23T19:50:29.829Z,98502.03
2023-03-23T19:53:00.613Z,98508.75
2023-03-23T19:55:30.761Z,98502.72
2023-03-23T19:58:00.483Z,98496.94
2023-03-23T20:00:34.911Z,98485.75
2023-03-23T20:03:06.661Z,98485.63
2023-03-23T20:05:37.978Z,98482.69
2023-03-23T20:08:09.277Z,98485.94
2023-03-23T20:10:40.819Z,98475.03
2023-03-23T20:13:11.075Z,98479.94
2023-03-23T20:15:44.014Z,98478.41
2023-03-23T20:18:18.908Z,98472.00
2023-03-23T20:20:51.701Z,98479.72
2023-03-23T20:23:22.470Z,98463.44
2023-03-23T20:25:52.916Z,98473.91
2023-03-23T20:28:22.589Z,98469.63
2023-03-23T20:31:16.983Z,98473.91
2023-03-23T20:34:00.876Z,98470.16
2023-03-23T20:36:35.179Z,98468.25
2023-03-23T20:39:08.308Z,98477.19
2023-03-23T20:41:40.529Z,98480.78
2023-03-23T20:44:16.059Z,98479.56
2023-03-23T20:46:50.276Z,98479.94
2023-03-23T20:49:21.267Z,98474.47
2023-03-23T20:51:52.041Z,98474.47
2023-03-23T20:54:23.229Z,98482.50
2023-03-23T20:56:54.894Z,98489.28
2023-03-23T20:59:28.679Z,98494.31
2023-03-23T21:02:00.928Z,98496.06
2023-03-23T21:04:30.756Z,98498.50
2023-03-23T21:07:01.417Z,98497.91
2023-03-23T21:09:31.112Z,98494.63
2023-03-23T21:12:04.596Z,98497.47
2023-03-23T21:14:34.294Z,98491.66
2023-03-23T21:17:07.340Z,98492.69
2023-03-23T21:19:37.983Z,98486.09
2023-03-23T21:22:09.841Z,98494.00
2023-03-23T21:24:40.500Z,98481.47
2023-03-23T21:27:10.204Z,98485.22
2023-03-23T21:29:39.834Z,98478.00
2023-03-23T21:32:12.078Z,98474.16
2023-03-23T21:34:43.441Z,98474.28
2023-03-23T21:37:15.266Z,98477.34
2023-03-23T21:39:44.909Z,98475.75
2023-03-23T21:42:15.728Z,98479.06
2023-03-23T21:44:45.501Z,98473.72
2023-03-23T21:47:18.298Z,98479.84
2023-03-23T21:49:48.380Z,98464.44
2023-03-23T21:52:18.168Z,98459.16
2023-03-23T21:54:48.945Z,98465.16
2023-03-23T21:57:18.789Z,98450.97
2023-03-23T21:59:48.476Z,98448.38
2023-03-23T22:02:20.874Z,98437.81
2023-03-23T22:05:09.887Z,98436.28
2023-03-23T22:07:58.026Z,98432.16
2023-03-23T22:10:27.734Z,98431.84
2023-03-23T22:12:57.713Z,98429.25
2023-03-23T22:15:28.218Z,98426.28
2023-03-23T22:18:01.049Z,98428.09
2023-03-23T22:20:31.164Z,98428.44
2023-03-23T22:23:01.069Z,98436.53
2023-03-23T22:25:33.684Z,98431.06
2023-03-23T22:28:04.707Z,98420.69
2023-03-23T22:30:34.936Z,98429.41
2023-03-23T22:33:07.505Z,98421.53
2023-03-23T22:35:37.326Z,98418.94
2023-03-23T22:38:07.366Z,98412.00
2023-03-23T22:40:37.098Z,98411.41
2023-03-23T22:43:06.775Z,98407.19
2023-03-23T22:45:36.541Z,98396.69
2023-03-23T22:48:08.959Z,98395.63
2023-03-23T22:50:38.697Z,98398.91
2023-03-23T22:53:08.376Z,98387.31
2023-03-23T22:55:38.108Z,98394.88
2023-03-23T22:58:07.774Z,98391.56
2023-03-23T23:00:38.485Z,98387.22
2023-03-23T23:03:12.014Z,98372.97
2023-03-23T23:05:45.459Z,98372.16
2023-03-23T23:08:17.725Z,98368.91
2023-03-23T23:10:50.359Z,98364.25
2023-03-23T23:13:20.793Z,98368.97
2023-03-23T23:15:52.922Z,98362.81
2023-03-23T23:18:26.346Z,98371.47
2023-03-23T23:20:57.770Z,98371.38
2023-03-23T23:23:29.174Z,98363.72
2023-03-23T23:25:59.363Z,98361.16
2023-03-23T23:28:29.757Z,98348.56
2023-03-23T23:30:59.747Z,98349.09
2023-03-23T23:33:32.133Z,98350.75
2023-03-23T23:36:02.528Z,98343.88
2023-03-23T23:38:32.291Z,98344.41
2023-03-23T23:41:01.980Z,98332.66
2023-03-23T23:43:31.692Z,98327.50
2023-03-23T23:46:01.398Z,98330.97
2023-03-23T23:48:34.375Z,98328.41
2023-03-23T23:51:04.071Z,98322.50
2023-03-23T23:53:34.171Z,98327.22
2023-03-23T23:56:06.143Z,98319.69
2023-03-23T23:58:35.905Z,98311.56
